Terminal Aerodrome Forecast
Issued by NWS

Home | Current Version | Previous Version | Text Only | Print | Product List | Glossary On
Versions: 1 2 3 4 5 6 7 8 9 10 11 12 13 14
000
FTUS44 KLZK 291100
TAFLLQ
TAF
KLLQ 291121Z 2912/3012 12008KT P6SM BKN020
      TEMPO 2914/2918 SCT025
     FM291800 18010G18KT P6SM SCT025 BKN250
     FM300300 VRB06KT P6SM VCSH BKN040 PROB30 3004/3010 -TSRA
      BKN025CB=

USA.gov is the U.S. government's official web portal to all federal, state and local government web resources and services.